Flight Track Log - Related Links

Times and Time Zones

All times are in EDT time to prevent confusion due to time zone crossing. See the N762NC flight status page for this flight to view local times or setup timezone preferences in your user account.

Time Position Orientation Groundspeed Altitude Reporting Facility
EDT Latitude Longitude Course Direction KTS MPH feet Rate Location/Type
Mon 05:26:17 PM 42.2014 -83.3722 214° Southwest 168 193 1,400  Level Cleveland Center
Mon 05:27:00 PM 42.1714 -83.3975 212° Southwest 217 250 2,400 2,286 Climbing Cleveland Center
Mon 05:28:02 PM 42.1150 -83.4406 210° Southwest 232 267 5,400 2,226 Climbing Cleveland Center
Mon 05:29:00 PM 41.9892 -83.8574 209° Southwest  Level Estimated
Mon 05:29:04 PM 42.0522 -83.4881 209° Southwest 255 293 7,000  Level Cleveland Center
Mon 05:30:00 PM 41.8815 -83.8787 188° South  Level FlightAware Approximate
Mon 05:30:06 PM 41.9889 -83.5511 217° Southwest 278 320 9,600  Level Cleveland Center
Mon 05:31:00 PM 41.8266 -84.0050 214° Southwest  Level Estimated
Mon 05:31:08 PM 41.9225 -83.6175 217° Southwest 291 335 10,900  Level Cleveland Center
Mon 05:32:10 PM 41.8397 -83.6842 211° Southwest 343 395 12,300 1,935 Climbing Cleveland Center
Mon 05:33:12 PM 41.7353 -83.7658 210° Southwest 361 415 14,900 2,177 Climbing Cleveland Center
Mon 05:34:14 PM 41.6475 -83.8425 213° Southwest 373 429 16,800 1,584 Climbing Cleveland Center
Mon 05:35:17 PM 41.5597 -83.9217 214° Southwest 380 437 18,200 1,536 Climbing Cleveland Center
Mon 05:36:19 PM 41.4689 -84.0025 214° Southwest 390 449 20,000 1,500 Climbing Cleveland Center
Mon 05:37:21 PM 41.3783 -84.0869 215° Southwest 397 457 21,300 1,452 Climbing Cleveland Center
Mon 05:38:23 PM 41.2711 -84.1858 215° Southwest 408 470 23,000 1,452 Climbing Cleveland Center
Mon 05:39:25 PM 41.1747 -84.2767 215° Southwest 420 483 24,300 1,161 Climbing Cleveland Center
Mon 05:40:27 PM 41.1278 -84.4175 246° West 422 486 25,400 1,161 Climbing Cleveland Center
Mon 05:41:29 PM 41.1019 -84.5692 257° West 422 486 26,700 1,258 Climbing Cleveland Center
Mon 05:42:31 PM 41.0889 -84.7206 264° West 415 478 28,000 629 Climbing Cleveland Center
Mon 05:43:33 PM 41.0603 -84.9058 258° West 423 487 28,000  Level Cleveland Center
Mon 05:44:35 PM 41.0106 -85.0567 246° West 440 506 28,000  Level Cleveland Center
Mon 05:45:37 PM 40.9778 -85.2056 254° West 424 488 28,000  Level Cleveland Center
Mon 05:46:39 PM 40.9564 -85.3544 259° West 414 476 28,000  Level Cleveland Center
Mon 05:47:42 PM 40.9333 -85.5042 259° West 413 475 28,000  Level Cleveland Center
Mon 05:48:44 PM 40.9133 -85.6547 260° West 414 476 28,000  Level Cleveland Center
Mon 05:49:46 PM 40.8931 -85.8061 260° West 416 479 28,000  Level Cleveland Center
Mon 05:50:48 PM 40.8681 -85.9872 260° West 416 479 28,000  Level Cleveland Center
Mon 05:51:50 PM 40.8550 -86.1383 264° West 414 476 28,000  Level Cleveland Center
Mon 05:53:19 PM 40.8439 -86.3442 266° West 418 481 28,000  Level Kansas City Center
Mon 05:54:21 PM 40.8328 -86.5250 265° West 414 476 28,000  Level Kansas City Center
Mon 05:55:20 PM 40.8175 -86.6531 261° West 415 478 28,000  Level Chicago Center
Mon 05:56:22 PM 40.7886 -86.8189 257° West 411 473 28,000  Level Chicago Center
Mon 05:57:24 PM 40.7592 -86.9669 255° West 415 478 28,000  Level Chicago Center
Mon 05:58:26 PM 40.7317 -87.1133 256° West 413 475 28,000  Level Chicago Center
Mon 05:59:28 PM 40.7044 -87.2606 256° West 414 476 28,000  Level Chicago Center
Mon 06:00:30 PM 40.6842 -87.4097 260° West 415 478 28,000  Level Chicago Center
Mon 06:01:32 PM 40.6689 -87.5875 264° West 408 470 28,000  Level Chicago Center
Mon 06:02:34 PM 40.6581 -87.7394 265° West 416 479 28,000  Level Chicago Center
Mon 06:03:37 PM 40.6372 -87.8875 260° West 412 474 28,000  Level Chicago Center
Mon 06:04:39 PM 40.5947 -88.0286 248° West 413 475 28,000  Level Chicago Center
Mon 06:05:41 PM 40.5108 -88.1264 222° Southwest 413 475 28,000  Level Chicago Center
Mon 06:06:43 PM 40.3881 -88.2183 210° Southwest 425 489 28,000  Level Chicago Center
Mon 06:07:45 PM 40.2983 -88.3156 220° Southwest 420 483 28,000  Level Chicago Center
Mon 06:08:47 PM 40.1903 -88.3783 204° Southwest 432 497 28,000 -290 Level Chicago Center
Mon 06:09:49 PM 40.0633 -88.4256 196° South 434 499 27,400 -677 Descending Chicago Center
Mon 06:10:51 PM 39.9472 -88.4678 196° South 432 497 26,600 -823 Descending Chicago Center
Mon 06:11:53 PM 39.8333 -88.5142 197° South 430 495 25,700 -871 Descending Chicago Center
Mon 06:12:55 PM 39.7297 -88.5911 210° Southwest 425 489 24,800 -774 Descending Kansas City Center
Mon 06:13:57 PM 39.6403 -88.6892 220° Southwest 418 481 24,100 -387 Descending Kansas City Center
Mon 06:14:59 PM 39.5519 -88.7881 221° Southwest 418 481 24,000 -49 Descending Kansas City Center
Mon 06:16:00 PM 39.4619 -88.8789 218° Southwest 412 474 24,000  Level Kansas City Center
Mon 06:17:03 PM 39.3603 -88.9592 211° Southwest 406 467 24,000  Level Kansas City Center
Mon 06:18:04 PM 39.2614 -89.0303 209° Southwest 406 467 24,000 -1,512 Level Kansas City Center
Mon 06:19:06 PM 39.1478 -89.1103 209° Southwest 403 464 20,900 -3,024 Descending Kansas City Center
Mon 06:20:07 PM 39.0747 -89.2350 233° Southwest 408 470 17,800 -2,634 Descending Kansas City Center
Mon 06:21:09 PM 39.0525 -89.3731 258° West 394 453 15,500 -1,355 Descending Kansas City Center
Mon 06:22:11 PM 39.0256 -89.5078 256° West 393 452 15,000 -634 Descending Kansas City Center
Mon 06:23:12 PM 38.9894 -89.6531 252° West 397 457 14,200 -1,756 Descending Kansas City Center
Mon 06:24:14 PM 38.9597 -89.7828 254° West 386 444 11,400 -2,081 Descending Kansas City Center
Mon 06:25:16 PM 38.9256 -89.9139 252° West 367 422 9,900 -968 Descending Kansas City Center
Mon 06:26:18 PM 38.8889 -89.9806 235° Southwest 298 343 9,400 -823 Descending Kansas City Center
Mon 06:27:20 PM 38.8356 -90.0744 234° Southwest 275 316 8,200 -677 Descending Kansas City Center
Mon 06:28:22 PM 38.8100 -90.1617 249° West 268 308 8,000 -341 Descending Kansas City Center
Mon 06:29:23 PM 38.8214 -90.2533 279° West 280 322 7,500 -1,073 Descending Kansas City Center
Mon 06:30:25 PM 38.8525 -90.3431 294° West 280 322 5,800 -1,161 Descending Kansas City Center
Mon 06:31:27 PM 38.8858 -90.4303 296° West 278 320 5,100 -435 Descending Kansas City Center
Mon 06:32:29 PM 38.9217 -90.5339 294° West 272 313 4,900 -339 Descending Kansas City Center
Mon 06:33:31 PM 38.9183 -90.6186 267° West 270 311 4,400 -435 Descending Kansas City Center
Mon 06:34:33 PM 38.8625 -90.6094 173° South 231 266 4,000 -629 Descending Kansas City Center
Mon 06:35:35 PM 38.8281 -90.5514 127° Southeast 213 245 3,100 -919 Descending Kansas City Center
Mon 06:36:37 PM 38.8017 -90.4953 121° Southeast 199 229 2,100 -878 Descending Kansas City Center
Mon 06:37:38 PM 38.7789 -90.4489 122° Southeast 175 201 1,300 -780 Descending Kansas City Center
Mon 06:38:40 PM 38.7564 -90.4028 122° Southeast 143 165 500 -774 Descending Kansas City Center

Login

Don't have an account? Register now (free) for customized features, flight alerts, and more!